sensor_id;sensor_type;location;lat;lon;timestamp;pressure;altitude;pressure_sealevel;temperature;humidity
8140;BME280;4111;50.972;7.072;2022-07-18T00:01:43;101882.97;;;20.60;51.08
8140;BME280;4111;50.972;7.072;2022-07-18T00:04:10;101878.03;;;20.52;50.73
8140;BME280;4111;50.972;7.072;2022-07-18T00:06:37;101889.09;;;20.41;51.32
8140;BME280;4111;50.972;7.072;2022-07-18T00:09:04;101882.56;;;20.27;51.89
8140;BME280;4111;50.972;7.072;2022-07-18T00:11:30;101881.22;;;20.19;52.03
8140;BME280;4111;50.972;7.072;2022-07-18T00:13:57;101885.78;;;20.45;52.11
8140;BME280;4111;50.972;7.072;2022-07-18T00:16:23;101883.91;;;20.40;52.32
8140;BME280;4111;50.972;7.072;2022-07-18T00:18:50;101887.56;;;20.20;52.58
8140;BME280;4111;50.972;7.072;2022-07-18T00:21:17;101881.56;;;20.08;52.81
8140;BME280;4111;50.972;7.072;2022-07-18T00:23:43;101883.28;;;19.98;53.22
8140;BME280;4111;50.972;7.072;2022-07-18T00:26:10;101878.63;;;19.89;53.43
8140;BME280;4111;50.972;7.072;2022-07-18T00:28:36;101884.16;;;19.78;54.05
8140;BME280;4111;50.972;7.072;2022-07-18T00:31:03;101884.44;;;19.67;54.41
8140;BME280;4111;50.972;7.072;2022-07-18T00:33:29;101889.16;;;19.71;54.37
8140;BME280;4111;50.972;7.072;2022-07-18T00:35:56;101885.00;;;19.79;54.38
8140;BME280;4111;50.972;7.072;2022-07-18T00:38:22;101886.53;;;20.06;54.10
8140;BME280;4111;50.972;7.072;2022-07-18T00:40:49;101885.66;;;20.20;53.24
8140;BME280;4111;50.972;7.072;2022-07-18T00:43:15;101884.97;;;19.84;53.96
8140;BME280;4111;50.972;7.072;2022-07-18T00:45:49;101889.41;;;19.65;54.47
8140;BME280;4111;50.972;7.072;2022-07-18T00:48:16;101889.16;;;19.51;54.80
8140;BME280;4111;50.972;7.072;2022-07-18T00:50:43;101886.47;;;19.35;54.92
8140;BME280;4111;50.972;7.072;2022-07-18T00:53:10;101885.09;;;19.28;55.34
8140;BME280;4111;50.972;7.072;2022-07-18T00:55:39;101890.00;;;19.51;55.06
8140;BME280;4111;50.972;7.072;2022-07-18T00:58:08;101893.81;;;19.66;55.08
8140;BME280;4111;50.972;7.072;2022-07-18T01:00:34;101888.94;;;19.47;55.15
8140;BME280;4111;50.972;7.072;2022-07-18T01:03:20;101889.50;;;19.29;55.63
8140;BME280;4111;50.972;7.072;2022-07-18T01:05:47;101890.34;;;19.14;56.04
8140;BME280;4111;50.972;7.072;2022-07-18T01:08:13;101889.50;;;18.93;56.16
8140;BME280;4111;50.972;7.072;2022-07-18T01:10:40;101882.38;;;18.92;56.26
8140;BME280;4111;50.972;7.072;2022-07-18T01:13:07;101883.72;;;18.89;56.42
8140;BME280;4111;50.972;7.072;2022-07-18T01:15:34;101879.63;;;19.02;56.38
8140;BME280;4111;50.972;7.072;2022-07-18T01:18:01;101871.03;;;19.19;55.92
8140;BME280;4111;50.972;7.072;2022-07-18T01:20:28;101873.25;;;19.22;55.68
8140;BME280;4111;50.972;7.072;2022-07-18T01:22:55;101869.13;;;19.09;55.92
8140;BME280;4111;50.972;7.072;2022-07-18T01:25:22;101874.38;;;19.00;56.07
8140;BME280;4111;50.972;7.072;2022-07-18T01:27:49;101875.75;;;18.98;56.06
8140;BME280;4111;50.972;7.072;2022-07-18T01:30:16;101871.06;;;18.93;56.18
8140;BME280;4111;50.972;7.072;2022-07-18T01:32:43;101867.75;;;18.91;56.23
8140;BME280;4111;50.972;7.072;2022-07-18T01:35:10;101868.03;;;18.90;56.72
8140;BME280;4111;50.972;7.072;2022-07-18T01:37:36;101869.69;;;18.80;56.73
8140;BME280;4111;50.972;7.072;2022-07-18T01:40:12;101870.25;;;18.98;56.70
8140;BME280;4111;50.972;7.072;2022-07-18T01:42:38;101870.78;;;19.10;56.59
8140;BME280;4111;50.972;7.072;2022-07-18T01:45:05;101878.22;;;18.99;56.69
8140;BME280;4111;50.972;7.072;2022-07-18T01:47:32;101878.50;;;18.88;57.14
8140;BME280;4111;50.972;7.072;2022-07-18T01:49:58;101869.38;;;18.77;57.37
8140;BME280;4111;50.972;7.072;2022-07-18T01:52:25;101873.78;;;18.62;58.06
8140;BME280;4111;50.972;7.072;2022-07-18T01:54:51;101874.88;;;18.56;58.38
8140;BME280;4111;50.972;7.072;2022-07-18T01:57:18;101874.03;;;18.56;58.10
8140;BME280;4111;50.972;7.072;2022-07-18T01:59:45;101875.13;;;18.45;58.46
8140;BME280;4111;50.972;7.072;2022-07-18T02:02:11;101871.22;;;18.30;58.68
8140;BME280;4111;50.972;7.072;2022-07-18T02:04:38;101880.00;;;18.22;59.37
8140;BME280;4111;50.972;7.072;2022-07-18T02:07:23;101877.03;;;18.44;59.45
8140;BME280;4111;50.972;7.072;2022-07-18T02:09:49;101879.53;;;18.56;58.99
8140;BME280;4111;50.972;7.072;2022-07-18T02:12:16;101878.13;;;18.38;59.11
8140;BME280;4111;50.972;7.072;2022-07-18T02:14:43;101870.97;;;18.27;59.49
8140;BME280;4111;50.972;7.072;2022-07-18T02:17:09;101873.34;;;18.02;59.96
8140;BME280;4111;50.972;7.072;2022-07-18T02:19:36;101867.84;;;18.02;60.04
8140;BME280;4111;50.972;7.072;2022-07-18T02:22:02;101871.13;;;17.89;60.21
8140;BME280;4111;50.972;7.072;2022-07-18T02:24:29;101867.81;;;17.87;60.59
8140;BME280;4111;50.972;7.072;2022-07-18T02:26:55;101869.94;;;17.80;60.72
8140;BME280;4111;50.972;7.072;2022-07-18T02:29:22;101869.38;;;17.78;60.90
8140;BME280;4111;50.972;7.072;2022-07-18T02:31:48;101863.28;;;17.71;61.52
8140;BME280;4111;50.972;7.072;2022-07-18T02:34:15;101867.69;;;17.72;61.44
8140;BME280;4111;50.972;7.072;2022-07-18T02:36:43;101864.50;;;17.90;61.41
8140;BME280;4111;50.972;7.072;2022-07-18T02:39:10;101858.19;;;17.95;61.20
8140;BME280;4111;50.972;7.072;2022-07-18T02:41:37;101859.75;;;17.75;61.62
8140;BME280;4111;50.972;7.072;2022-07-18T02:44:03;101862.75;;;17.74;61.94
8140;BME280;4111;50.972;7.072;2022-07-18T02:46:30;101856.97;;;17.70;62.03
8140;BME280;4111;50.972;7.072;2022-07-18T02:48:57;101862.63;;;17.53;62.40
8140;BME280;4111;50.972;7.072;2022-07-18T02:51:24;101867.81;;;17.44;62.80
8140;BME280;4111;50.972;7.072;2022-07-18T02:53:50;101867.50;;;17.36;62.95
8140;BME280;4111;50.972;7.072;2022-07-18T02:56:17;101864.16;;;17.29;63.12
8140;BME280;4111;50.972;7.072;2022-07-18T02:58:43;101861.91;;;17.25;63.35
8140;BME280;4111;50.972;7.072;2022-07-18T03:01:10;101868.13;;;17.48;63.04
8140;BME280;4111;50.972;7.072;2022-07-18T03:03:36;101855.22;;;17.49;62.73
8140;BME280;4111;50.972;7.072;2022-07-18T03:06:03;101863.78;;;17.20;63.04
8140;BME280;4111;50.972;7.072;2022-07-18T03:08:30;101860.72;;;17.11;63.45
8140;BME280;4111;50.972;7.072;2022-07-18T03:10:56;101861.78;;;17.05;63.55
8140;BME280;4111;50.972;7.072;2022-07-18T03:13:23;101857.94;;;17.06;63.53
8140;BME280;4111;50.972;7.072;2022-07-18T03:15:49;101854.13;;;17.07;63.88
8140;BME280;4111;50.972;7.072;2022-07-18T03:18:16;101856.28;;;17.05;63.99
8140;BME280;4111;50.972;7.072;2022-07-18T03:20:43;101858.47;;;17.03;64.10
8140;BME280;4111;50.972;7.072;2022-07-18T03:23:10;101857.50;;;17.19;63.71
8140;BME280;4111;50.972;7.072;2022-07-18T03:25:36;101858.63;;;17.23;63.30
8140;BME280;4111;50.972;7.072;2022-07-18T03:28:03;101854.63;;;17.04;63.89
8140;BME280;4111;50.972;7.072;2022-07-18T03:30:30;101857.38;;;17.04;63.89
8140;BME280;4111;50.972;7.072;2022-07-18T03:32:56;101855.09;;;16.91;64.36
8140;BME280;4111;50.972;7.072;2022-07-18T03:35:22;101855.50;;;16.77;64.33
8140;BME280;4111;50.972;7.072;2022-07-18T03:37:49;101854.34;;;16.73;64.39
8140;BME280;4111;50.972;7.072;2022-07-18T03:40:15;101852.19;;;16.75;64.49
8140;BME280;4111;50.972;7.072;2022-07-18T03:42:42;101846.13;;;16.73;64.54
8140;BME280;4111;50.972;7.072;2022-07-18T03:45:08;101851.63;;;16.73;64.62
8140;BME280;4111;50.972;7.072;2022-07-18T03:47:35;101852.34;;;16.63;64.92
8140;BME280;4111;50.972;7.072;2022-07-18T03:50:02;101851.63;;;16.73;65.06
8140;BME280;4111;50.972;7.072;2022-07-18T03:52:28;101851.50;;;16.90;64.48
8140;BME280;4111;50.972;7.072;2022-07-18T03:54:55;101852.06;;;16.92;64.39
8140;BME280;4111;50.972;7.072;2022-07-18T03:57:21;101851.66;;;16.78;64.67
8140;BME280;4111;50.972;7.072;2022-07-18T03:59:48;101846.69;;;16.75;64.38
8140;BME280;4111;50.972;7.072;2022-07-18T04:02:14;101843.59;;;16.66;65.11
8140;BME280;4111;50.972;7.072;2022-07-18T04:04:41;101850.44;;;16.64;65.30
8140;BME280;4111;50.972;7.072;2022-07-18T04:07:07;101848.47;;;16.59;65.47
8140;BME280;4111;50.972;7.072;2022-07-18T04:09:33;101852.34;;;16.63;65.24
8140;BME280;4111;50.972;7.072;2022-07-18T04:12:00;101848.22;;;16.61;65.51
8140;BME280;4111;50.972;7.072;2022-07-18T04:14:26;101861.31;;;16.54;65.89
8140;BME280;4111;50.972;7.072;2022-07-18T04:16:53;101857.50;;;16.55;65.84
8140;BME280;4111;50.972;7.072;2022-07-18T04:19:20;101857.59;;;16.65;66.07
8140;BME280;4111;50.972;7.072;2022-07-18T04:21:48;101863.81;;;16.82;65.66
8140;BME280;4111;50.972;7.072;2022-07-18T04:24:15;101868.19;;;16.83;65.56
8140;BME280;4111;50.972;7.072;2022-07-18T04:26:41;101866.16;;;16.74;65.91
8140;BME280;4111;50.972;7.072;2022-07-18T04:29:08;101864.13;;;16.59;66.35
8140;BME280;4111;50.972;7.072;2022-07-18T04:31:35;101864.63;;;16.56;66.61
8140;BME280;4111;50.972;7.072;2022-07-18T04:34:01;101855.31;;;16.57;66.81
8140;BME280;4111;50.972;7.072;2022-07-18T04:36:28;101854.78;;;16.60;66.63
8140;BME280;4111;50.972;7.072;2022-07-18T04:38:54;101852.00;;;16.55;66.94
8140;BME280;4111;50.972;7.072;2022-07-18T04:41:21;101850.66;;;16.57;67.50
8140;BME280;4111;50.972;7.072;2022-07-18T04:43:51;101851.25;;;16.64;66.89
8140;BME280;4111;50.972;7.072;2022-07-18T04:46:18;101845.47;;;16.61;67.35
8140;BME280;4111;50.972;7.072;2022-07-18T04:48:45;101843.91;;;16.70;67.11
8140;BME280;4111;50.972;7.072;2022-07-18T04:51:12;101835.19;;;16.78;66.85
8140;BME280;4111;50.972;7.072;2022-07-18T04:53:38;101840.25;;;16.87;66.84
8140;BME280;4111;50.972;7.072;2022-07-18T04:56:05;101847.16;;;16.94;66.73
8140;BME280;4111;50.972;7.072;2022-07-18T04:58:31;101838.72;;;17.01;66.63
8140;BME280;4111;50.972;7.072;2022-07-18T05:00:58;101839.53;;;17.01;66.59
8140;BME280;4111;50.972;7.072;2022-07-18T05:03:24;101839.88;;;17.10;66.57
8140;BME280;4111;50.972;7.072;2022-07-18T05:05:51;101843.38;;;17.43;65.98
8140;BME280;4111;50.972;7.072;2022-07-18T05:08:17;101834.16;;;17.64;65.28
8140;BME280;4111;50.972;7.072;2022-07-18T05:10:44;101850.91;;;17.68;64.69
8140;BME280;4111;50.972;7.072;2022-07-18T05:13:11;101848.16;;;17.68;65.00
8140;BME280;4111;50.972;7.072;2022-07-18T05:15:37;101850.09;;;17.73;64.93
8140;BME280;4111;50.972;7.072;2022-07-18T05:18:04;101856.22;;;17.85;64.69
8140;BME280;4111;50.972;7.072;2022-07-18T05:20:31;101845.56;;;17.94;64.47
8140;BME280;4111;50.972;7.072;2022-07-18T05:22:57;101846.16;;;18.01;64.12
8140;BME280;4111;50.972;7.072;2022-07-18T05:25:24;101843.69;;;18.10;63.63
8140;BME280;4111;50.972;7.072;2022-07-18T05:27:51;101842.59;;;18.16;63.56
8140;BME280;4111;50.972;7.072;2022-07-18T05:30:18;101843.47;;;18.27;62.97
8140;BME280;4111;50.972;7.072;2022-07-18T05:32:46;101831.66;;;18.36;62.78
8140;BME280;4111;50.972;7.072;2022-07-18T05:35:13;101836.63;;;18.50;62.13
8140;BME280;4111;50.972;7.072;2022-07-18T05:37:40;101846.00;;;18.59;61.68
8140;BME280;4111;50.972;7.072;2022-07-18T05:40:09;101839.97;;;18.72;61.09
8140;BME280;4111;50.972;7.072;2022-07-18T05:42:36;101846.56;;;18.81;60.61
8140;BME280;4111;50.972;7.072;2022-07-18T05:45:19;101841.63;;;19.04;59.83
8140;BME280;4111;50.972;7.072;2022-07-18T05:47:46;101830.53;;;19.45;59.30
8140;BME280;4111;50.972;7.072;2022-07-18T05:50:12;101837.91;;;19.65;58.38
8140;BME280;4111;50.972;7.072;2022-07-18T05:52:39;101832.09;;;19.67;57.06
8140;BME280;4111;50.972;7.072;2022-07-18T05:55:06;101834.06;;;19.71;56.32
8140;BME280;4111;50.972;7.072;2022-07-18T05:57:34;101830.13;;;19.83;55.73
8140;BME280;4111;50.972;7.072;2022-07-18T06:00:02;101829.78;;;19.94;55.49
8140;BME280;4111;50.972;7.072;2022-07-18T06:02:29;101826.47;;;20.03;55.40
8140;BME280;4111;50.972;7.072;2022-07-18T06:04:56;101833.59;;;20.09;53.88
8140;BME280;4111;50.972;7.072;2022-07-18T06:07:42;101825.81;;;20.21;53.37
8140;BME280;4111;50.972;7.072;2022-07-18T06:10:09;101832.06;;;20.32;52.66
8140;BME280;4111;50.972;7.072;2022-07-18T06:12:38;101831.16;;;20.47;52.76
8140;BME280;4111;50.972;7.072;2022-07-18T06:15:05;101830.53;;;20.60;52.34
8140;BME280;4111;50.972;7.072;2022-07-18T06:17:33;101825.72;;;20.76;52.98
8140;BME280;4111;50.972;7.072;2022-07-18T06:20:00;101825.63;;;20.86;51.55
8140;BME280;4111;50.972;7.072;2022-07-18T06:22:26;101827.22;;;20.92;50.74
8140;BME280;4111;50.972;7.072;2022-07-18T06:24:53;101819.72;;;20.98;49.96
8140;BME280;4111;50.972;7.072;2022-07-18T06:27:19;101810.78;;;21.06;49.36
8140;BME280;4111;50.972;7.072;2022-07-18T06:29:46;101808.97;;;21.20;49.33
8140;BME280;4111;50.972;7.072;2022-07-18T06:32:13;101806.13;;;21.31;49.25
8140;BME280;4111;50.972;7.072;2022-07-18T06:34:39;101809.03;;;21.45;48.93
8140;BME280;4111;50.972;7.072;2022-07-18T06:37:06;101806.91;;;21.61;48.80
8140;BME280;4111;50.972;7.072;2022-07-18T06:39:33;101805.72;;;21.67;47.83
8140;BME280;4111;50.972;7.072;2022-07-18T06:41:59;101799.00;;;21.73;47.22
8140;BME280;4111;50.972;7.072;2022-07-18T06:44:25;101803.63;;;21.77;47.31
8140;BME280;4111;50.972;7.072;2022-07-18T06:46:52;101801.06;;;21.86;47.13
8140;BME280;4111;50.972;7.072;2022-07-18T06:49:19;101800.09;;;21.96;47.18
8140;BME280;4111;50.972;7.072;2022-07-18T06:51:45;101802.41;;;22.08;46.33
8140;BME280;4111;50.972;7.072;2022-07-18T06:54:12;101807.50;;;22.20;46.27
8140;BME280;4111;50.972;7.072;2022-07-18T06:56:38;101806.00;;;22.27;46.23
8140;BME280;4111;50.972;7.072;2022-07-18T06:59:05;101799.81;;;22.35;45.67
8140;BME280;4111;50.972;7.072;2022-07-18T07:01:31;101805.53;;;22.39;45.15
8140;BME280;4111;50.972;7.072;2022-07-18T07:03:58;101799.66;;;22.46;45.27
8140;BME280;4111;50.972;7.072;2022-07-18T07:06:24;101801.72;;;22.54;44.69
8140;BME280;4111;50.972;7.072;2022-07-18T07:08:52;101796.81;;;22.65;44.87
8140;BME280;4111;50.972;7.072;2022-07-18T07:11:18;101801.28;;;22.80;44.94
8140;BME280;4111;50.972;7.072;2022-07-18T07:13:49;101809.41;;;22.90;44.10
8140;BME280;4111;50.972;7.072;2022-07-18T07:16:16;101804.00;;;22.99;43.76
8140;BME280;4111;50.972;7.072;2022-07-18T07:18:42;101792.44;;;23.10;43.65
8140;BME280;4111;50.972;7.072;2022-07-18T07:21:08;101797.28;;;23.19;43.40
8140;BME280;4111;50.972;7.072;2022-07-18T07:23:35;101796.56;;;23.27;43.00
8140;BME280;4111;50.972;7.072;2022-07-18T07:26:02;101800.69;;;23.29;42.73
8140;BME280;4111;50.972;7.072;2022-07-18T07:28:28;101803.56;;;23.38;42.93
8140;BME280;4111;50.972;7.072;2022-07-18T07:30:55;101795.44;;;23.55;43.02
8140;BME280;4111;50.972;7.072;2022-07-18T07:33:22;101790.38;;;23.71;43.24
8140;BME280;4111;50.972;7.072;2022-07-18T07:35:48;101790.22;;;23.82;42.74
8140;BME280;4111;50.972;7.072;2022-07-18T07:38:15;101780.94;;;23.86;42.35
8140;BME280;4111;50.972;7.072;2022-07-18T07:40:47;101785.53;;;23.91;42.21
8140;BME280;4111;50.972;7.072;2022-07-18T07:43:16;101782.53;;;24.01;42.03
8140;BME280;4111;50.972;7.072;2022-07-18T07:45:48;101787.13;;;24.20;42.12
8140;BME280;4111;50.972;7.072;2022-07-18T07:48:16;101785.22;;;24.29;42.08
8140;BME280;4111;50.972;7.072;2022-07-18T07:50:42;101782.63;;;24.32;41.33
8140;BME280;4111;50.972;7.072;2022-07-18T07:53:09;101787.31;;;24.46;41.81
8140;BME280;4111;50.972;7.072;2022-07-18T07:55:36;101771.44;;;24.60;41.40
8140;BME280;4111;50.972;7.072;2022-07-18T07:58:03;101763.16;;;24.69;41.02
8140;BME280;4111;50.972;7.072;2022-07-18T08:00:31;101765.47;;;24.76;40.96
8140;BME280;4111;50.972;7.072;2022-07-18T08:03:03;101766.03;;;24.86;40.79
8140;BME280;4111;50.972;7.072;2022-07-18T08:05:35;101763.16;;;25.00;40.69
8140;BME280;4111;50.972;7.072;2022-07-18T08:08:04;101766.28;;;25.07;40.02
8140;BME280;4111;50.972;7.072;2022-07-18T08:10:32;101757.66;;;25.18;39.99
8140;BME280;4111;50.972;7.072;2022-07-18T08:13:09;101763.78;;;25.28;39.75
8140;BME280;4111;50.972;7.072;2022-07-18T08:15:37;101760.56;;;25.44;39.37
8140;BME280;4111;50.972;7.072;2022-07-18T08:18:04;101756.50;;;25.59;39.08
8140;BME280;4111;50.972;7.072;2022-07-18T08:20:30;101760.47;;;25.75;38.79
8140;BME280;4111;50.972;7.072;2022-07-18T08:23:07;101752.81;;;25.98;39.21
8140;BME280;4111;50.972;7.072;2022-07-18T08:25:38;101756.88;;;26.18;38.50
8140;BME280;4111;50.972;7.072;2022-07-18T08:28:05;101752.00;;;26.33;38.77
8140;BME280;4111;50.972;7.072;2022-07-18T08:30:33;101766.22;;;26.48;37.83
8140;BME280;4111;50.972;7.072;2022-07-18T08:33:00;101758.50;;;26.54;37.86
8140;BME280;4111;50.972;7.072;2022-07-18T08:35:30;101768.47;;;26.55;37.65
8140;BME280;4111;50.972;7.072;2022-07-18T08:38:01;101761.75;;;26.74;37.78
8140;BME280;4111;50.972;7.072;2022-07-18T08:40:28;101757.75;;;26.92;37.78
8140;BME280;4111;50.972;7.072;2022-07-18T08:42:56;101753.78;;;27.02;37.02
8140;BME280;4111;50.972;7.072;2022-07-18T08:45:43;101756.34;;;27.16;37.15
8140;BME280;4111;50.972;7.072;2022-07-18T08:48:12;101752.50;;;27.38;37.28
8140;BME280;4111;50.972;7.072;2022-07-18T08:50:42;101749.94;;;27.54;36.88
8140;BME280;4111;50.972;7.072;2022-07-18T08:53:11;101746.97;;;27.59;35.70
8140;BME280;4111;50.972;7.072;2022-07-18T08:55:37;101750.78;;;27.75;35.00
8140;BME280;4111;50.972;7.072;2022-07-18T08:58:04;101744.31;;;27.83;34.51
8140;BME280;4111;50.972;7.072;2022-07-18T09:00:50;101729.63;;;27.95;34.44
8140;BME280;4111;50.972;7.072;2022-07-18T09:03:17;101740.66;;;28.13;34.84
8140;BME280;4111;50.972;7.072;2022-07-18T09:05:43;101735.25;;;28.28;34.28
8140;BME280;4111;50.972;7.072;2022-07-18T09:08:15;101732.22;;;28.34;33.16
8140;BME280;4111;50.972;7.072;2022-07-18T09:10:54;101728.94;;;28.53;33.30
8140;BME280;4111;50.972;7.072;2022-07-18T09:18:35;101717.69;;;28.86;32.31
8140;BME280;4111;50.972;7.072;2022-07-18T09:21:10;101712.09;;;28.98;32.33
8140;BME280;4111;50.972;7.072;2022-07-18T09:23:39;101718.41;;;28.95;31.95
8140;BME280;4111;50.972;7.072;2022-07-18T09:26:07;101711.41;;;29.01;31.92
8140;BME280;4111;50.972;7.072;2022-07-18T09:28:48;101720.75;;;29.18;31.43
8140;BME280;4111;50.972;7.072;2022-07-18T09:31:35;101717.81;;;29.26;31.53
8140;BME280;4111;50.972;7.072;2022-07-18T09:34:03;101715.16;;;29.42;31.45
8140;BME280;4111;50.972;7.072;2022-07-18T09:36:29;101716.53;;;29.49;30.88
8140;BME280;4111;50.972;7.072;2022-07-18T09:38:59;101719.06;;;29.54;30.57
8140;BME280;4111;50.972;7.072;2022-07-18T09:41:28;101719.53;;;29.56;30.58
8140;BME280;4111;50.972;7.072;2022-07-18T09:43:57;101719.75;;;29.63;30.78
8140;BME280;4111;50.972;7.072;2022-07-18T09:46:23;101716.72;;;29.80;30.51
8140;BME280;4111;50.972;7.072;2022-07-18T09:49:07;101719.25;;;29.85;29.85
8140;BME280;4111;50.972;7.072;2022-07-18T09:51:34;101705.16;;;29.82;29.71
8140;BME280;4111;50.972;7.072;2022-07-18T09:54:00;101705.75;;;30.03;29.67
8140;BME280;4111;50.972;7.072;2022-07-18T09:56:30;101712.84;;;30.13;28.93
8140;BME280;4111;50.972;7.072;2022-07-18T09:58:56;101710.03;;;30.13;28.62
8140;BME280;4111;50.972;7.072;2022-07-18T10:01:23;101702.09;;;30.15;28.37
8140;BME280;4111;50.972;7.072;2022-07-18T10:03:51;101715.09;;;30.08;28.07
8140;BME280;4111;50.972;7.072;2022-07-18T10:06:18;101713.16;;;30.24;27.68
8140;BME280;4111;50.972;7.072;2022-07-18T10:08:45;101707.75;;;30.31;27.20
8140;BME280;4111;50.972;7.072;2022-07-18T10:11:11;101709.53;;;30.23;27.33
8140;BME280;4111;50.972;7.072;2022-07-18T10:13:38;101708.41;;;30.40;27.40
8140;BME280;4111;50.972;7.072;2022-07-18T10:16:05;101704.72;;;30.52;27.36
8140;BME280;4111;50.972;7.072;2022-07-18T10:18:35;101703.47;;;30.66;27.25
8140;BME280;4111;50.972;7.072;2022-07-18T10:26:23;101698.94;;;31.09;27.30
8140;BME280;4111;50.972;7.072;2022-07-18T10:29:09;101693.09;;;31.33;27.14
8140;BME280;4111;50.972;7.072;2022-07-18T10:31:38;101699.59;;;31.37;26.66
8140;BME280;4111;50.972;7.072;2022-07-18T10:36:38;101690.44;;;31.56;26.06
8140;BME280;4111;50.972;7.072;2022-07-18T10:39:16;101688.72;;;31.52;26.20
8140;BME280;4111;50.972;7.072;2022-07-18T10:47:05;101698.69;;;31.33;26.40
8140;BME280;4111;50.972;7.072;2022-07-18T10:57:41;101685.41;;;32.05;25.50
8140;BME280;4111;50.972;7.072;2022-07-18T11:00:13;101684.75;;;31.92;25.03
8140;BME280;4111;50.972;7.072;2022-07-18T11:23:44;101663.88;;;31.93;24.79
8140;BME280;4111;50.972;7.072;2022-07-18T11:26:17;101661.47;;;31.91;24.37
8140;BME280;4111;50.972;7.072;2022-07-18T11:28:57;101651.47;;;31.94;24.84
8140;BME280;4111;50.972;7.072;2022-07-18T11:31:26;101655.53;;;31.96;24.64
8140;BME280;4111;50.972;7.072;2022-07-18T11:33:53;101654.13;;;31.87;24.21
8140;BME280;4111;50.972;7.072;2022-07-18T11:36:22;101650.28;;;31.75;24.38
8140;BME280;4111;50.972;7.072;2022-07-18T11:38:55;101643.50;;;31.76;24.35
8140;BME280;4111;50.972;7.072;2022-07-18T11:41:22;101649.03;;;31.73;24.09
8140;BME280;4111;50.972;7.072;2022-07-18T11:43:50;101643.75;;;31.68;23.96
8140;BME280;4111;50.972;7.072;2022-07-18T11:46:20;101638.34;;;31.59;24.42
8140;BME280;4111;50.972;7.072;2022-07-18T11:49:01;101629.41;;;31.53;25.49
8140;BME280;4111;50.972;7.072;2022-07-18T11:51:39;101632.97;;;31.70;25.33
8140;BME280;4111;50.972;7.072;2022-07-18T11:54:07;101629.19;;;31.81;24.87
8140;BME280;4111;50.972;7.072;2022-07-18T11:56:45;101625.44;;;31.97;24.36
8140;BME280;4111;50.972;7.072;2022-07-18T11:59:12;101622.25;;;31.98;24.49
8140;BME280;4111;50.972;7.072;2022-07-18T12:01:39;101618.22;;;31.96;24.97
8140;BME280;4111;50.972;7.072;2022-07-18T12:04:06;101630.59;;;32.14;24.77
8140;BME280;4111;50.972;7.072;2022-07-18T12:06:33;101622.75;;;32.24;24.32
8140;BME280;4111;50.972;7.072;2022-07-18T12:08:59;101623.50;;;32.20;25.14
8140;BME280;4111;50.972;7.072;2022-07-18T12:11:34;101615.00;;;32.17;25.20
8140;BME280;4111;50.972;7.072;2022-07-18T12:16:40;101615.09;;;32.01;24.33
8140;BME280;4111;50.972;7.072;2022-07-18T12:19:11;101605.50;;;32.02;24.47
8140;BME280;4111;50.972;7.072;2022-07-18T12:21:55;101610.75;;;32.04;24.92
8140;BME280;4111;50.972;7.072;2022-07-18T12:29:55;101600.13;;;32.16;24.47
8140;BME280;4111;50.972;7.072;2022-07-18T12:32:23;101597.47;;;32.24;24.73
8140;BME280;4111;50.972;7.072;2022-07-18T12:34:59;101593.94;;;32.30;24.29
8140;BME280;4111;50.972;7.072;2022-07-18T12:37:28;101591.97;;;32.31;24.43
8140;BME280;4111;50.972;7.072;2022-07-18T12:40:01;101592.28;;;32.26;24.22
8140;BME280;4111;50.972;7.072;2022-07-18T12:42:47;101593.78;;;32.19;24.34
8140;BME280;4111;50.972;7.072;2022-07-18T12:45:15;101599.13;;;32.28;24.64
8140;BME280;4111;50.972;7.072;2022-07-18T12:47:42;101583.66;;;32.38;24.76
8140;BME280;4111;50.972;7.072;2022-07-18T12:50:09;101581.97;;;32.33;24.86
8140;BME280;4111;50.972;7.072;2022-07-18T12:52:40;101576.06;;;32.42;24.88
8140;BME280;4111;50.972;7.072;2022-07-18T12:55:07;101577.44;;;32.52;24.95
8140;BME280;4111;50.972;7.072;2022-07-18T12:57:34;101571.88;;;33.09;24.28
8140;BME280;4111;50.972;7.072;2022-07-18T13:00:00;101570.81;;;33.88;23.99
8140;BME280;4111;50.972;7.072;2022-07-18T13:02:27;101556.97;;;34.13;23.70
8140;BME280;4111;50.972;7.072;2022-07-18T13:04:53;101568.41;;;34.31;22.87
8140;BME280;4111;50.972;7.072;2022-07-18T13:07:20;101556.94;;;34.62;23.16
8140;BME280;4111;50.972;7.072;2022-07-18T13:09:46;101551.09;;;34.88;23.75
8140;BME280;4111;50.972;7.072;2022-07-18T13:12:13;101552.38;;;35.02;22.81
8140;BME280;4111;50.972;7.072;2022-07-18T13:14:39;101544.00;;;35.16;22.49
8140;BME280;4111;50.972;7.072;2022-07-18T13:17:06;101543.63;;;35.28;22.34
8140;BME280;4111;50.972;7.072;2022-07-18T13:19:32;101541.63;;;35.32;21.96
8140;BME280;4111;50.972;7.072;2022-07-18T13:21:59;101547.25;;;35.29;21.93
8140;BME280;4111;50.972;7.072;2022-07-18T13:24:26;101543.25;;;35.33;22.17
8140;BME280;4111;50.972;7.072;2022-07-18T13:27:01;101540.44;;;35.41;21.62
8140;BME280;4111;50.972;7.072;2022-07-18T13:29:28;101534.41;;;35.46;22.00
8140;BME280;4111;50.972;7.072;2022-07-18T13:31:55;101536.03;;;35.54;21.58
8140;BME280;4111;50.972;7.072;2022-07-18T13:34:22;101535.22;;;35.50;21.63
8140;BME280;4111;50.972;7.072;2022-07-18T13:36:50;101536.03;;;35.43;21.99
8140;BME280;4111;50.972;7.072;2022-07-18T13:39:18;101528.72;;;35.39;21.40
8140;BME280;4111;50.972;7.072;2022-07-18T13:41:46;101519.09;;;35.47;21.73
8140;BME280;4111;50.972;7.072;2022-07-18T13:44:13;101517.50;;;35.53;21.47
8140;BME280;4111;50.972;7.072;2022-07-18T13:46:40;101507.81;;;35.58;21.29
8140;BME280;4111;50.972;7.072;2022-07-18T13:49:07;101509.06;;;35.78;21.37
8140;BME280;4111;50.972;7.072;2022-07-18T13:51:34;101513.50;;;35.90;21.79
8140;BME280;4111;50.972;7.072;2022-07-18T13:54:07;101513.13;;;35.91;21.99
8140;BME280;4111;50.972;7.072;2022-07-18T13:56:33;101509.88;;;35.86;21.58
8140;BME280;4111;50.972;7.072;2022-07-18T13:59:00;101515.56;;;36.00;21.66
8140;BME280;4111;50.972;7.072;2022-07-18T14:01:27;101509.88;;;36.14;21.20
8140;BME280;4111;50.972;7.072;2022-07-18T14:03:58;101515.13;;;36.12;21.07
8140;BME280;4111;50.972;7.072;2022-07-18T14:06:25;101509.09;;;36.21;21.49
8140;BME280;4111;50.972;7.072;2022-07-18T14:08:51;101502.22;;;36.29;21.34
8140;BME280;4111;50.972;7.072;2022-07-18T14:11:18;101497.75;;;36.50;21.75